Latest Weather Observations for Christmas Island

IDW60801

Issued at 1:38 am WST Thursday 2 March 2017 (issued every 30 minutes, with the page automatically refreshed every 10 minutes)

About weather observations | Map of weather stations | Latest weather observations for WA | Other Formats
Station Details ID: 200790 Name: CHRISTMAS ISLAND AERO Lat: -10.45 Lon: 105.69 Height: 261.0 m
Data from the previous 72 hours. | See also: Recent months at Christmas Island
Date/Time
WST
Temp
°C
App
Temp
°C
Dew
Point
°C
Rel
Hum
%
Delta-T
°C
Wind Press
QNH
hPa
Press
MSL
hPa
Rain since
9am
mm
Dir  Spd
km/h
Gust
km/h
Spd
kts
Gust
kts
02/01:30am 25.3 29.6 23.6 90 1.2 ESE 7 9 4 5 1011.5 - 0.0
02/01:14am 25.4 29.4 23.7 90 1.2 ESE 9 13 5 7 1011.5 - 0.0
02/01:00am 25.5 30.0 23.9 91 1.1 E 7 9 4 5 1011.6 1010.0 0.0
02/12:42am 25.8 30.2 23.8 89 1.4 E 7 11 4 6 1011.7 - 0.0
02/12:30am 25.8 30.1 23.6 88 1.5 E 7 9 4 5 1012.1 - 0.0
02/12:00am 25.9 30.2 23.7 88 1.5 E 7 11 4 6 1012.3 - 0.0
 
Date/Time
WST
Temp
°C
App
Temp
°C
Dew
Point
°C
Rel
Hum
%
Delta-T
°C
Wind Press
QNH
hPa
Press
MSL
hPa
Rain since
9am
mm
Dir  Spd
km/h
Gust
km/h
Spd
kts
Gust
kts
01/11:56pm 25.9 29.8 23.6 87 1.6 E 9 11 5 6 1012.3 - 0.0
01/11:30pm 25.9 30.4 23.9 89 1.4 ESE 7 11 4 6 1012.4 - 0.0
01/11:00pm 26.0 29.6 23.8 88 1.5 ESE 11 17 6 9 1012.5 - 0.0
01/10:30pm 25.9 29.8 23.6 87 1.6 ESE 9 13 5 7 1012.2 - 0.0
01/10:19pm 25.8 29.6 23.5 87 1.6 E 9 13 5 7 1012.2 - 0.0
01/10:08pm 26.0 29.8 23.4 85 1.8 ESE 9 13 5 7 1012.3 - 0.0
01/10:00pm 25.8 29.8 23.8 89 1.4 ESE 9 13 5 7 - - 0.0
01/09:57pm 25.8 29.8 23.8 89 1.4 ESE 9 13 5 7 1012.2 - 0.0
01/09:30pm 25.8 29.7 23.6 88 1.5 ESE 9 13 5 7 1011.7 - 0.0
01/09:29pm 25.7 29.9 23.5 88 1.5 ESE 7 13 4 7 1011.7 - 0.0
01/09:13pm 25.6 29.5 23.6 89 1.4 ESE 9 11 5 6 1011.8 - 0.0
01/09:00pm 25.6 29.4 23.4 88 1.5 ESE 9 13 5 7 1011.7 - 0.0
01/08:30pm 25.5 28.8 23.2 87 1.6 SE 11 13 6 7 1011.2 - 0.0
01/08:00pm 25.5 29.4 23.6 89 1.3 SE 9 13 5 7 1010.9 - 0.0
01/07:30pm 25.6 29.0 23.4 88 1.5 SE 11 13 6 7 1010.7 - 0.0
01/07:00pm 25.8 28.9 23.5 87 1.6 SE 13 17 7 9 1010.3 1008.7 0.0
01/06:30pm 26.3 28.8 23.1 82 2.2 SE 15 20 8 11 1009.8 - 0.0
01/06:00pm 26.6 29.7 23.6 83 2.1 SE 13 17 7 9 1009.4 - 0.0
01/05:30pm 26.7 29.4 23.4 82 2.3 SE 15 20 8 11 1009.3 - 0.0
01/05:28pm 26.7 29.4 23.4 82 2.3 SSE 15 20 8 11 1009.3 - 0.0
01/05:00pm 27.1 30.4 23.9 82 2.2 SE 13 20 7 11 1009.3 - 0.0
01/04:30pm 27.1 29.5 23.6 81 2.4 SE 17 24 9 13 1009.6 - 0.0
01/04:16pm 27.3 30.5 23.7 81 2.5 SE 13 20 7 11 1009.7 - 0.0
01/04:00pm 27.4 30.3 23.8 81 2.5 SE 15 20 8 11 1009.7 1008.1 0.0
01/03:30pm 28.0 30.9 23.8 78 2.9 SE 15 24 8 13 1009.8 - 0.0
01/03:00pm 27.2 29.2 23.0 78 2.9 ESE 17 22 9 12 1010.2 - 0.0
01/02:30pm 28.3 31.0 22.9 72 3.7 ESE 13 22 7 12 1010.7 - 0.0
01/02:00pm 28.1 30.2 22.4 71 3.9 ESE 15 20 8 11 1011.4 - 0.0
01/01:30pm 28.4 30.0 20.8 63 5.1 SE 13 19 7 10 1011.7 - 0.0
01/01:00pm 27.9 29.8 21.4 67 4.4 ESE 13 19 7 10 1012.1 1010.4 0.0
01/12:30pm 26.8 29.8 21.9 74 3.3 SE 9 15 5 8 1012.4 - 0.0
01/12:00pm 26.9 28.9 22.2 75 3.2 SSE 15 22 8 12 1012.6 - 0.0
01/11:30am 27.0 29.5 23.1 79 2.7 SE 15 20 8 11 1012.7 - 0.0
01/11:00am 25.8 29.3 23.6 88 1.5 SSE 11 19 6 10 1012.8 - 0.0
01/10:30am 26.0 28.8 23.7 87 1.6 SSE 15 22 8 12 1013.0 - 0.0
01/10:04am 26.0 28.9 23.1 84 2.0 SSE 13 20 7 11 1013.0 - 0.0
01/10:00am 25.7 28.2 22.5 82 2.2 SSE 13 22 7 12 1013.1 1011.5 27.8
01/09:31am 24.8 27.5 23.5 92 0.9 SSE 15 22 8 12 1013.2 - 27.8
01/09:30am 24.7 27.4 23.5 93 0.8 SSE 15 22 8 12 1013.2 - 27.8
01/09:00am 24.7 27.7 23.4 92 0.9 SE 13 20 7 11 1012.9 - 27.8
01/08:30am 23.8 26.5 22.8 94 0.7 SSE 13 19 7 10 1012.5 - 27.8
01/08:23am 23.6 26.2 22.6 94 0.7 SSE 13 20 7 11 1012.4 - 27.8
01/08:20am 23.5 26.0 22.5 94 0.7 SSE 13 20 7 11 1012.4 - 27.8
01/08:02am 24.0 26.3 23.4 96 0.4 ESE 17 26 9 14 1012.2 - 27.8
01/08:00am 24.1 26.4 23.4 96 0.5 ESE 17 26 9 14 1012.2 - 27.8
01/07:30am 23.7 26.8 22.8 95 0.6 ESE 11 15 6 8 1011.6 - 27.8
01/07:00am 23.3 26.6 22.6 96 0.5 ESE 9 13 5 7 1011.5 1009.9 27.8
01/06:30am 22.8 25.9 22.1 96 0.5 SE 9 13 5 7 1011.0 - 27.6
01/06:00am 22.6 27.3 22.0 96 0.4 CALM 0 6 0 3 1011.1 - 27.2
01/05:35am 22.7 26.3 22.3 98 0.3 S 7 15 4 8 1011.1 - 26.6
01/05:32am 22.7 26.2 22.1 96 0.4 S 7 15 4 8 1011.2 - 26.6
01/05:30am 22.7 26.2 22.1 96 0.4 S 7 15 4 8 1011.2 - 26.4
01/05:00am 22.3 22.9 21.4 95 0.6 SE 20 30 11 16 1011.1 - 16.8
01/04:55am 21.6 24.4 20.4 93 0.8 S 6 9 3 5 1010.9 - 13.4
01/04:30am 22.8 25.1 22.1 96 0.5 S 13 24 7 13 1011.0 - 5.4
01/04:15am 22.7 25.5 21.6 93 0.7 S 9 15 5 8 1011.0 - 2.2
01/04:00am 22.8 25.7 21.8 94 0.7 SW 9 17 5 9 - - 1.0
01/03:41am 22.9 25.5 21.9 94 0.7 S 11 17 6 9 1011.2 - 0.2
01/03:30am 23.0 25.3 22.1 95 0.6 SSE 13 24 7 13 1011.3 - 0.0
01/03:20am 23.5 26.5 22.6 95 0.6 S 11 24 6 13 1011.2 - 0.0
01/03:00am 24.0 26.5 22.4 91 1.1 S 13 24 7 13 1011.1 - 0.0
01/02:30am 24.3 28.3 23.1 93 0.8 SSW 7 11 4 6 1011.4 - 0.0
01/02:00am 24.6 28.6 23.1 91 1.0 SSW 7 13 4 7 1011.4 - 0.0
01/01:30am 25.1 30.5 23.8 92 0.9 SSE 2 6 1 3 1011.6 - 0.0
01/01:17am 25.2 29.9 23.9 92 0.9 SSE 6 9 3 5 1011.9 - 0.0
01/01:00am 25.4 30.2 24.2 93 0.8 SSE 6 9 3 5 1012.2 1010.5 0.0
01/12:30am 25.7 30.1 24.4 92 0.9 SE 9 15 5 8 1012.5 - 0.0
01/12:00am 25.6 30.2 24.2 92 1.0 SE 7 13 4 7 1012.5 - 0.0
 
Date/Time
WST
Temp
°C
App
Temp
°C
Dew
Point
°C
Rel
Hum
%
Delta-T
°C
Wind Press
QNH
hPa
Press
MSL
hPa
Rain since
9am
mm
Dir  Spd
km/h
Gust
km/h
Spd
kts
Gust
kts
28/11:30pm 25.7 30.0 24.3 92 1.0 SSE 9 15 5 8 1012.5 - 0.0
28/11:00pm 25.7 30.0 24.3 92 1.0 SSE 9 13 5 7 1012.3 - 0.0
28/10:30pm 25.7 30.3 24.1 91 1.1 SSE 7 15 4 8 1011.9 - 0.0
28/10:19pm 25.6 30.2 24.2 92 1.0 SSE 7 13 4 7 1011.9 - 0.0
28/10:18pm 25.6 30.2 24.2 92 1.0 SSE 7 13 4 7 1011.9 - 0.0
28/10:00pm 25.6 30.1 24.0 91 1.1 SE 7 13 4 7 1011.8 1010.2 0.0
28/09:30pm 25.8 29.5 23.9 89 1.3 SE 11 17 6 9 1011.5 - 0.0
28/09:01pm 25.8 29.1 23.8 89 1.4 SE 13 22 7 12 1011.1 - 0.0
28/09:00pm 25.8 29.1 23.8 89 1.4 SE 13 22 7 12 1011.1 - 0.0
28/08:30pm 25.6 28.6 23.3 87 1.6 SE 13 19 7 10 1011.0 - 0.0
28/08:00pm 25.3 28.9 23.0 87 1.6 SSE 9 15 5 8 1010.6 - 0.0
28/07:30pm 25.4 28.9 22.9 86 1.7 SSE 9 13 5 7 1010.1 - 0.0
28/07:25pm 25.5 29.0 22.9 85 1.8 SSE 9 17 5 9 1009.9 - 0.0
28/07:00pm 26.0 30.0 23.7 87 1.6 SSE 9 15 5 8 1009.7 1008.1 0.0
28/06:34pm 26.5 30.6 23.9 85 1.8 SSE 9 17 5 9 1009.5 - 0.0
28/06:30pm 26.4 30.0 23.8 85 1.8 SSE 11 17 6 9 1009.5 - 0.0
28/06:25pm 26.6 30.5 23.6 83 2.1 S 9 15 5 8 1009.4 - 0.0
28/06:00pm 27.0 30.5 23.5 81 2.4 SSE 11 17 6 9 1009.0 - 0.0
28/05:51pm 26.7 30.3 23.7 83 2.1 SSE 11 19 6 10 1009.0 - 0.0
28/05:35pm 27.2 30.7 24.2 84 2.1 SSE 13 20 7 11 1009.0 - 0.0
28/05:34pm 27.1 30.4 23.9 82 2.2 SSE 13 20 7 11 1009.0 - 0.0
28/05:30pm 27.3 31.1 24.1 83 2.2 SSE 11 20 6 11 1009.1 - 0.0
28/05:11pm 27.3 30.9 23.7 81 2.5 SSE 11 17 6 9 1009.3 - 0.0
28/05:00pm 27.8 31.9 23.9 79 2.7 SSE 9 19 5 10 1009.4 - 0.0
28/04:30pm 28.0 31.6 23.8 78 2.9 SSE 11 17 6 9 1009.5 - 0.0
28/04:00pm 28.2 32.3 23.9 77 3.0 S 9 13 5 7 1009.7 1008.1 0.0
28/03:43pm 27.9 31.8 24.3 81 2.5 SSE 11 20 6 11 1009.7 - 0.0
28/03:30pm 27.6 31.3 24.5 83 2.2 SE 13 19 7 10 1010.0 - 0.0
28/03:00pm 28.4 32.2 24.7 80 2.6 SE 13 20 7 11 1010.2 - 0.0
28/02:30pm 28.3 32.0 24.5 80 2.7 SSE 13 20 7 11 1010.4 - 0.0
28/02:00pm 28.0 31.4 24.0 79 2.8 SE 13 19 7 10 1010.8 - 0.0
28/01:45pm 28.7 32.3 24.3 77 3.1 ESE 13 22 7 12 1011.0 - 0.0
28/01:39pm 28.3 31.2 23.8 76 3.1 E 15 20 8 11 1011.2 - 0.0
28/01:30pm 28.5 31.6 23.6 75 3.4 ESE 13 20 7 11 1011.3 - 0.0
28/01:00pm 28.0 30.5 23.2 75 3.3 SE 15 20 8 11 1011.8 1010.2 0.0
28/12:30pm 28.1 31.0 24.4 80 2.6 SE 17 24 9 13 1012.1 - 0.0
28/12:00pm 28.2 30.8 23.9 77 3.0 ESE 17 24 9 13 1012.3 - 0.0
28/11:30am 28.2 31.2 24.0 78 2.9 SE 15 22 8 12 1012.2 - 0.0
28/11:00am 27.5 31.0 24.2 82 2.3 SE 13 22 7 12 1012.5 - 0.0
28/10:43am 27.4 29.4 23.6 80 2.6 ESE 19 24 10 13 1012.5 - 0.0
28/10:30am 27.3 30.5 23.7 81 2.5 SE 13 20 7 11 1012.5 - 0.0
28/10:02am 27.4 30.0 23.3 78 2.8 SE 15 24 8 13 1012.6 - 0.0
28/10:00am 27.8 30.8 23.3 76 3.1 SE 13 20 7 11 1012.5 1010.8 0.0
28/09:30am 27.3 30.7 24.0 82 2.3 SE 13 22 7 12 1012.6 - 0.0
28/09:00am 27.2 31.1 24.2 84 2.1 SSE 11 17 6 9 1012.5 - 0.0
28/08:56am 27.4 31.5 23.9 81 2.4 SSE 9 13 5 7 1012.5 - 0.0
28/08:30am 26.4 30.4 23.7 85 1.9 SE 9 17 5 9 1012.4 - 0.0
28/08:03am 26.4 30.2 23.5 84 2.0 SE 9 19 5 10 1012.1 - 0.0
28/08:00am 26.2 30.1 23.6 85 1.8 SSE 9 19 5 10 1012.1 - 0.0
28/07:47am 25.6 29.5 23.6 89 1.4 SE 9 15 5 8 1011.8 - 0.0
28/07:46am 25.5 29.4 23.6 89 1.3 SE 9 15 5 8 1011.8 - 0.0
28/07:30am 25.3 29.1 23.4 89 1.3 SSE 9 15 5 8 1011.5 - 0.0
28/07:21am 25.3 29.0 23.3 89 1.4 SE 9 17 5 9 1011.4 - 0.0
28/07:20am 25.3 29.0 23.3 89 1.4 SE 9 17 5 9 1011.4 - 0.0
28/07:09am 25.2 28.9 23.3 89 1.3 SSE 9 13 5 7 1011.3 - 0.0
28/07:00am 25.2 28.9 23.2 89 1.4 SE 9 13 5 7 1011.2 1009.6 0.0
28/06:57am 25.2 28.9 23.2 89 1.4 SE 9 17 5 9 1011.2 - 0.0
28/06:47am 25.3 29.1 23.4 89 1.3 SE 9 15 5 8 1011.2 - 0.0
28/06:30am 25.3 29.5 23.4 89 1.3 SSE 7 15 4 8 1011.1 - 0.0
28/06:06am 25.3 28.5 23.1 87 1.5 SE 11 17 6 9 1011.2 - 0.0
28/06:00am 25.4 28.7 23.2 88 1.5 SE 11 17 6 9 1011.1 - 0.0
28/05:30am 25.6 28.9 23.9 90 1.2 SE 13 17 7 9 1011.1 - 0.0
28/05:05am 25.5 29.1 23.8 90 1.2 SE 11 17 6 9 1011.1 - 0.0
28/05:00am 25.5 28.6 23.5 89 1.4 SE 13 20 7 11 1011.1 - 0.0
28/04:48am 25.4 28.7 23.2 88 1.5 SE 11 19 6 10 1011.0 - 0.0
28/04:30am 25.5 28.6 23.6 89 1.3 SE 13 17 7 9 1010.9 - 0.0
28/04:23am 25.4 28.9 23.5 89 1.3 SE 11 17 6 9 1010.9 - 0.0
28/04:03am 25.3 29.1 23.4 89 1.3 SSE 9 17 5 9 1011.0 - 0.0
28/04:00am 25.3 29.1 23.4 89 1.3 SSE 9 15 5 8 1011.0 1009.4 0.0
28/03:32am 25.5 28.6 23.6 89 1.3 SE 13 19 7 10 1011.2 - 0.0
28/03:30am 25.5 28.6 23.6 89 1.3 SE 13 19 7 10 1011.2 - 0.0
28/03:10am 25.5 29.0 23.5 89 1.4 SE 11 19 6 10 1011.3 - 0.0
28/03:00am 25.6 28.8 23.7 89 1.3 SE 13 19 7 10 1011.2 - 0.0
28/02:46am 25.5 29.0 23.6 89 1.3 SE 11 17 6 9 1011.3 - 0.0
28/02:30am 25.6 29.2 23.7 89 1.3 SE 11 17 6 9 1011.3 - 0.0
28/02:20am 25.4 28.8 23.4 89 1.4 SSE 11 17 6 9 1011.4 - 0.0
28/02:00am 25.5 28.6 23.5 89 1.4 SE 13 20 7 11 1011.6 - 0.0
28/01:30am 25.6 29.1 23.6 89 1.4 SE 11 15 6 8 1011.9 - 0.0
28/01:00am 25.6 29.1 23.6 89 1.4 SE 11 19 6 10 1012.2 1010.5 0.0
28/12:30am 25.8 29.1 23.9 89 1.3 SSE 13 20 7 11 1012.4 - 0.0
28/12:12am 25.7 29.7 23.8 89 1.3 SSE 9 17 5 9 1012.6 - 0.0
28/12:09am 25.6 29.7 23.9 90 1.2 SSE 9 17 5 9 1012.6 - 0.0
28/12:00am 25.7 29.3 23.7 89 1.4 SSE 11 17 6 9 1012.6 - 0.0
 
Date/Time
WST
Temp
°C
App
Temp
°C
Dew
Point
°C
Rel
Hum
%
Delta-T
°C
Wind Press
QNH
hPa
Press
MSL
hPa
Rain since
9am
mm
Dir  Spd
km/h
Gust
km/h
Spd
kts
Gust
kts
27/11:54pm 25.7 29.3 23.7 89 1.4 SSE 11 19 6 10 1012.7 - 0.0
27/11:42pm 25.8 28.8 23.3 86 1.7 SE 13 20 7 11 1012.8 - 0.0
27/11:30pm 25.8 29.3 23.6 88 1.5 SSE 11 19 6 10 1012.8 - 0.0
27/11:28pm 25.8 29.3 23.6 88 1.5 SSE 11 19 6 10 1012.8 - 0.0
27/11:24pm 25.7 29.2 23.5 88 1.5 SSE 11 19 6 10 1012.8 - 0.0
27/11:00pm 25.6 29.6 23.7 89 1.3 SSE 9 13 5 7 1013.0 - 0.0
27/10:30pm 25.9 29.9 23.7 88 1.5 SSE 9 13 5 7 1012.8 - 0.0
27/10:00pm 26.0 30.0 23.7 87 1.6 SSE 9 17 5 9 1012.8 1011.2 0.0
27/09:30pm 26.0 30.0 23.7 87 1.6 SSE 9 13 5 7 1012.7 - 0.0
27/09:00pm 25.9 29.8 23.6 87 1.6 SE 9 17 5 9 1012.3 - 0.0
27/08:52pm 25.9 29.8 23.6 87 1.6 SSE 9 17 5 9 1012.3 - 0.0
27/08:30pm 25.6 29.9 23.3 87 1.6 S 6 13 3 7 1012.2 - 0.0
27/08:00pm 25.6 29.9 23.3 87 1.6 S 6 13 3 7 1011.8 - 0.0
27/07:30pm 25.9 29.8 23.0 84 2.0 SSE 7 13 4 7 1011.4 - 0.0
27/07:00pm 26.4 29.9 22.9 81 2.4 SSE 9 15 5 8 1010.9 1009.3 0.0
27/06:30pm 27.0 30.1 22.9 78 2.8 SSE 11 17 6 9 1010.8 - 0.0
27/06:00pm 27.2 30.4 23.1 78 2.8 SSE 11 17 6 9 1010.3 - 0.0
27/05:54pm 27.2 30.1 23.1 78 2.8 SE 13 20 7 11 1010.2 - 0.0
27/05:37pm 28.0 31.4 23.4 76 3.2 SSE 11 17 6 9 1010.1 - 0.0
27/05:30pm 27.4 30.3 23.2 78 2.9 SSE 13 20 7 11 1010.2 - 0.0
27/05:03pm 27.7 31.0 23.2 76 3.1 SSE 11 17 6 9 1010.4 - 0.0
27/05:00pm 27.5 31.0 23.5 79 2.8 SSE 11 17 6 9 1010.4 - 0.0
27/04:45pm 28.0 31.0 23.4 76 3.2 SE 13 20 7 11 1010.3 - 0.0
27/04:30pm 28.3 31.4 23.5 75 3.3 SE 13 20 7 11 1010.4 - 0.0
27/04:05pm 28.2 31.2 23.3 75 3.4 SSE 13 19 7 10 1010.6 - 0.0
27/04:00pm 27.9 30.7 23.0 74 3.4 SSE 13 20 7 11 1010.6 1009.0 0.0
27/03:46pm 28.0 31.5 23.5 76 3.1 SSE 11 20 6 11 1010.6 - 0.0
27/03:30pm 28.5 32.0 23.6 75 3.4 SSE 11 22 6 12 1010.7 - 0.0
27/03:00pm 27.9 30.3 23.0 74 3.4 SSE 15 20 8 11 1010.9 - 0.0
27/02:30pm 28.2 31.7 23.6 76 3.2 S 11 22 6 12 1011.2 - 0.0
27/02:24pm 28.5 31.6 23.6 75 3.4 SSE 13 22 7 12 1011.3 - 0.0
27/02:06pm 28.2 31.2 23.4 75 3.3 SSE 13 20 7 11 1011.4 - 0.0
27/02:00pm 28.1 31.4 23.2 74 3.4 S 11 19 6 10 1011.6 - 0.0
27/01:30pm 28.3 31.4 23.5 75 3.3 SSE 13 20 7 11 1011.8 - 0.0
27/01:00pm 28.4 31.7 23.8 76 3.2 SSE 13 20 7 11 1012.3 1010.6 0.0
27/12:30pm 27.8 30.3 23.2 76 3.2 SE 15 28 8 15 1012.5 - 0.0
27/11:30am 27.5 30.0 23.1 77 3.0 SSE 15 24 8 13 1012.8 - 0.0
27/11:00am 28.5 31.8 23.9 76 3.2 SSE 13 20 7 11 1012.8 - 0.0
27/10:30am 27.3 29.6 22.8 76 3.1 SE 15 20 8 11 1012.9 - 0.0
27/10:00am 27.7 29.9 22.6 74 3.5 SE 15 20 8 11 1012.7 1011.0 0.0
27/09:30am 27.7 29.9 21.8 70 4.0 SE 13 19 7 10 1012.5 - 0.0
27/09:00am 26.9 29.5 22.7 78 2.9 SE 13 20 7 11 1012.3 - 0.0
27/08:30am 26.5 28.8 22.7 79 2.6 SE 15 19 8 10 1011.9 - 0.0
27/08:00am 26.3 29.4 22.9 81 2.3 SE 11 17 6 9 1011.6 - 0.0
27/07:30am 25.2 27.9 22.2 83 2.0 SE 11 15 6 8 1011.5 - 0.0
27/07:00am 24.9 27.8 22.4 86 1.7 SE 11 19 6 10 1011.1 1009.5 0.0
27/06:51am 24.9 27.6 22.2 85 1.8 SE 11 19 6 10 1011.1 - 0.0
27/06:36am 25.0 28.1 22.8 87 1.5 SE 11 17 6 9 1011.0 - 0.0
27/06:30am 25.0 27.6 22.6 86 1.6 SE 13 19 7 10 1010.9 - 0.0
27/06:00am 24.8 27.7 22.4 86 1.6 SE 11 17 6 9 1010.6 - 0.0
27/05:30am 24.7 28.0 22.5 87 1.5 SE 9 15 5 8 1010.4 - 0.0
27/05:00am 24.5 27.7 22.3 87 1.5 SE 9 13 5 7 1010.3 - 0.0
27/04:30am 24.5 27.5 22.0 86 1.7 SE 9 13 5 7 1010.3 - 0.0
27/04:00am 24.6 27.6 21.9 85 1.8 SE 9 13 5 7 1010.4 1008.8 0.0
27/03:30am 24.9 28.0 22.2 85 1.8 SE 9 13 5 7 1010.7 - 0.0
27/03:00am 25.1 28.0 22.4 85 1.8 SE 11 17 6 9 1011.0 - 0.0

Other Formats:

Comma delimited format used in spreadsheet applications
http://www.bom.gov.au/fwo/IDW60801/IDW60801.96995.axf

JavaScript Object Notation format (JSON) in row-major order
http://www.bom.gov.au/fwo/IDW60801/IDW60801.96995.json